KFHU/FHU METAR and TAF weather

Enter ICAO airport designator
Station Type Date Time Source
KFHU METAR 2020/12/01 21:58 UTC NOAA

KFHU 012158Z AUTO 32010KT 10SM CLR 19/M15 A3006 RMK AO2 SLP146 T01871149


Station Type Date Time Source
KFHU Decoded METAR 2020/12/01 21:58 UTC NOAA

Fort Huachuca, Libby AAF Ft Huachuca, AZ, United States (KFHU) 46-98N 110-20W
Dec 01, 2020 - 04:58 PM EST / 2020.12.01 2158 UTC
Wind: from the NW (320 degrees) at 12 MPH (10 KT):0
Visibility: 10 mile(s):0
Sky conditions: clear
Temperature: 65.7 F (18.7 C)
Dew Point: 5.2 F (-14.9 C)
Relative Humidity: 8%
Pressure (altimeter): 30.06 in. Hg (1017 hPa)
ob: KFHU 012158Z AUTO 32010KT 10SM CLR 19/M15 A3006 RMK AO2 SLP146 T01871149
cycle: 22

Station Type Date Time Source
KFHU TAF 2020/12/01 22:03 UTC NOAA

TAF KFHU 012200Z 0122/0304 30009KT 9999 SKC QNH3002INS
TEMPO 0122/0124 31011G18KT 510003
BECMG 0203/0204 25009KT 9999 SKC QNH3007INS
BECMG 0214/0215 13010KT 9999 FEW230 QNH3016INS
BECMG 0217/0218 14009KT 9999 SKC QNH3008INS TX19/0122Z TN00/0212Z

Example: see airport list